createdAt,value
2018-08-06T00:01:37.476Z,21.60
2018-08-06T00:04:07.657Z,21.60
2018-08-06T00:09:09.029Z,21.50
2018-08-06T00:11:39.459Z,21.50
2018-08-06T00:14:09.581Z,21.40
2018-08-06T00:16:39.757Z,21.40
2018-08-06T00:19:09.928Z,21.40
2018-08-06T00:21:40.222Z,21.30
2018-08-06T00:24:10.335Z,21.30
2018-08-06T00:26:40.446Z,21.30
2018-08-06T00:29:10.617Z,21.20
2018-08-06T00:31:40.824Z,21.20
2018-08-06T00:36:40.554Z,21.10
2018-08-06T00:39:12.062Z,21.10
2018-08-06T00:41:42.157Z,21.00
2018-08-06T00:44:12.277Z,21.00
2018-08-06T00:46:42.417Z,21.00
2018-08-06T00:49:12.514Z,20.90
2018-08-06T00:51:42.568Z,20.90
2018-08-06T00:54:12.837Z,20.90
2018-08-06T00:56:42.860Z,20.80
2018-08-06T00:59:13.016Z,20.80
2018-08-06T01:01:43.085Z,20.80
2018-08-06T01:04:13.259Z,20.70
2018-08-06T01:06:43.293Z,20.70
2018-08-06T01:09:13.467Z,20.60
2018-08-06T01:11:43.521Z,20.60
2018-08-06T01:14:13.717Z,20.60
2018-08-06T01:16:43.978Z,20.60
2018-08-06T01:19:14.189Z,20.50
2018-08-06T01:21:44.329Z,20.50
2018-08-06T01:24:14.524Z,20.40
2018-08-06T01:26:44.625Z,20.40
2018-08-06T01:29:14.791Z,20.40
2018-08-06T01:31:44.925Z,20.30
2018-08-06T01:36:44.839Z,20.30
2018-08-06T01:39:14.952Z,20.20
2018-08-06T01:41:45.058Z,20.20
2018-08-06T01:44:15.212Z,20.20
2018-08-06T01:46:45.317Z,20.10
2018-08-06T01:49:15.369Z,20.10
2018-08-06T01:51:45.418Z,20.00
2018-08-06T01:54:15.499Z,20.00
2018-08-06T01:56:45.519Z,20.00
2018-08-06T01:59:15.584Z,19.90
2018-08-06T02:01:45.699Z,19.90
2018-08-06T02:04:15.722Z,19.90
2018-08-06T02:06:45.928Z,19.90
2018-08-06T02:09:16.050Z,19.80
2018-08-06T02:11:46.169Z,19.80
2018-08-06T02:14:16.297Z,19.70
2018-08-06T02:16:46.356Z,19.70
2018-08-06T02:19:16.518Z,19.70
2018-08-06T02:21:46.675Z,19.60
2018-08-06T02:24:17.033Z,19.60
2018-08-06T02:26:47.245Z,19.60
2018-08-06T02:29:17.312Z,19.50
2018-08-06T02:31:47.393Z,19.50
2018-08-06T02:34:17.445Z,19.40
2018-08-06T02:36:47.632Z,19.40
2018-08-06T02:39:17.685Z,19.40
2018-08-06T02:41:47.827Z,19.30
2018-08-06T02:44:17.993Z,19.30
2018-08-06T02:46:48.168Z,19.20
2018-08-06T02:49:18.352Z,19.20
2018-08-06T02:51:48.528Z,19.20
2018-08-06T02:54:18.591Z,19.10
2018-08-06T02:56:48.535Z,19.10
2018-08-06T02:59:18.556Z,19.10
2018-08-06T03:01:48.617Z,19.00
2018-08-06T03:04:18.681Z,19.00
2018-08-06T03:06:48.899Z,19.00
2018-08-06T03:09:18.977Z,18.90
2018-08-06T03:11:49.184Z,18.90
2018-08-06T03:14:19.432Z,18.90
2018-08-06T03:16:49.478Z,18.80
2018-08-06T03:19:19.596Z,18.80
2018-08-06T03:21:49.765Z,18.70
2018-08-06T03:24:19.898Z,18.70
2018-08-06T03:26:50.068Z,18.60
2018-08-06T03:29:20.162Z,18.60
2018-08-06T03:34:19.945Z,18.50
2018-08-06T03:36:50.054Z,18.50
2018-08-06T03:39:20.256Z,18.40
2018-08-06T03:41:50.457Z,18.40
2018-08-06T03:44:20.548Z,18.40
2018-08-06T03:46:50.726Z,18.40
2018-08-06T03:49:20.792Z,18.30
2018-08-06T03:51:51.037Z,18.30
2018-08-06T03:54:21.206Z,18.20
2018-08-06T03:56:51.284Z,18.20
2018-08-06T03:59:21.640Z,18.20
2018-08-06T04:01:51.836Z,18.10
2018-08-06T04:04:22.019Z,18.10
2018-08-06T04:06:52.204Z,18.10
2018-08-06T04:09:22.267Z,18.00
2018-08-06T04:11:52.259Z,18.00
2018-08-06T04:14:22.515Z,17.90
2018-08-06T04:16:52.577Z,17.90
2018-08-06T04:19:22.598Z,17.90
2018-08-06T04:21:52.608Z,17.90
2018-08-06T04:24:22.755Z,17.90
2018-08-06T04:26:53.036Z,17.80
2018-08-06T04:29:23.157Z,17.80
2018-08-06T04:31:53.390Z,17.80
2018-08-06T04:34:23.583Z,17.80
2018-08-06T04:36:53.730Z,17.80
2018-08-06T04:39:23.901Z,17.70
2018-08-06T04:41:54.071Z,17.70
2018-08-06T04:44:24.332Z,17.70
2018-08-06T04:46:54.442Z,17.70
2018-08-06T04:49:24.495Z,17.60
2018-08-06T04:51:54.589Z,17.60
2018-08-06T04:54:24.715Z,17.60
2018-08-06T04:56:54.826Z,17.60
2018-08-06T04:59:24.971Z,17.60
2018-08-06T05:01:55.022Z,17.60
2018-08-06T05:04:25.083Z,17.60
2018-08-06T05:06:55.109Z,17.70
2018-08-06T05:09:25.891Z,17.70
2018-08-06T05:14:25.507Z,17.70
2018-08-06T05:16:55.541Z,17.80
2018-08-06T05:19:25.686Z,17.80
2018-08-06T05:21:55.880Z,17.80
2018-08-06T05:24:26.033Z,17.90
2018-08-06T05:26:56.055Z,17.90
2018-08-06T05:29:26.091Z,17.90
2018-08-06T05:31:56.189Z,18.00
2018-08-06T05:34:26.312Z,18.00
2018-08-06T05:36:56.417Z,18.00
2018-08-06T05:39:26.594Z,18.00
2018-08-06T05:41:56.729Z,18.10
2018-08-06T05:44:26.888Z,18.20
2018-08-06T05:46:57.056Z,18.20
2018-08-06T05:49:27.195Z,18.30
2018-08-06T05:54:27.075Z,18.50
2018-08-06T05:56:57.132Z,18.60
2018-08-06T06:01:57.114Z,19.00
2018-08-06T06:04:27.170Z,19.20
2018-08-06T06:06:57.475Z,19.40
2018-08-06T06:09:27.640Z,19.70
2018-08-06T06:11:57.754Z,19.90
2018-08-06T06:14:27.859Z,20.20
2018-08-06T06:16:57.900Z,20.40
2018-08-06T06:19:27.958Z,20.70
2018-08-06T06:21:57.992Z,20.90
2018-08-06T06:24:28.027Z,21.10
2018-08-06T06:26:58.048Z,21.30
2018-08-06T06:29:28.197Z,21.60
2018-08-06T06:31:58.479Z,21.80
2018-08-06T06:34:28.706Z,22.00
2018-08-06T06:36:58.764Z,22.20
2018-08-06T06:39:28.894Z,22.40
2018-08-06T06:41:59.069Z,22.60
2018-08-06T06:44:29.217Z,22.70
2018-08-06T06:46:59.365Z,22.90
2018-08-06T06:49:29.512Z,23.10
2018-08-06T06:51:59.631Z,23.20
2018-08-06T06:54:29.812Z,23.40
2018-08-06T06:57:00.075Z,23.50
2018-08-06T06:59:30.337Z,23.70
2018-08-06T07:02:00.386Z,23.80
2018-08-06T07:04:30.473Z,24.00
2018-08-06T07:07:00.573Z,24.10
2018-08-06T07:09:30.765Z,24.20
2018-08-06T07:12:00.927Z,24.40
2018-08-06T07:14:31.140Z,24.50
2018-08-06T07:17:01.190Z,24.60
2018-08-06T07:19:31.304Z,24.80
2018-08-06T07:22:01.449Z,24.90
2018-08-06T07:24:31.475Z,25.00
2018-08-06T07:27:01.621Z,25.10
2018-08-06T07:29:31.845Z,25.20
2018-08-06T07:32:02.117Z,25.30
2018-08-06T07:37:01.993Z,25.50
2018-08-06T07:39:32.114Z,25.60
2018-08-06T07:42:02.394Z,25.70
2018-08-06T07:47:02.220Z,25.80
2018-08-06T07:49:32.373Z,25.80
2018-08-06T07:52:02.629Z,25.90
2018-08-06T07:54:32.783Z,26.00
2018-08-06T07:57:03.036Z,26.10
2018-08-06T07:59:33.173Z,26.20
2018-08-06T08:02:03.434Z,26.20
2018-08-06T08:04:33.646Z,26.30
2018-08-06T08:07:03.876Z,26.40
2018-08-06T08:09:34.101Z,26.50
2018-08-06T08:12:04.475Z,26.60
2018-08-06T08:14:34.547Z,26.70
2018-08-06T08:17:04.722Z,26.70
2018-08-06T08:19:35.043Z,26.80
2018-08-06T08:22:05.438Z,26.90
2018-08-06T08:24:35.696Z,27.00
2018-08-06T08:27:05.881Z,27.10
2018-08-06T08:29:36.046Z,27.20
2018-08-06T08:32:06.198Z,27.30
2018-08-06T08:34:36.374Z,27.30
2018-08-06T08:37:06.525Z,27.40
2018-08-06T08:39:36.623Z,27.50
2018-08-06T08:42:06.886Z,27.60
2018-08-06T08:44:36.959Z,27.70
2018-08-06T08:47:07.405Z,27.70
2018-08-06T08:49:37.649Z,27.80
2018-08-06T08:52:07.838Z,27.90
2018-08-06T08:54:38.020Z,28.00
2018-08-06T08:57:08.373Z,28.10
2018-08-06T08:59:38.615Z,28.20
2018-08-06T09:02:08.958Z,28.30
2018-08-06T09:04:39.113Z,28.40
2018-08-06T09:07:09.416Z,28.40
2018-08-06T09:09:39.630Z,28.50
2018-08-06T09:12:09.901Z,28.50
2018-08-06T09:14:40.010Z,28.60
2018-08-06T09:17:10.337Z,28.70
2018-08-06T09:19:40.481Z,28.80
2018-08-06T09:22:10.491Z,28.80
2018-08-06T09:24:40.648Z,28.90
2018-08-06T09:27:10.770Z,29.00
2018-08-06T09:29:41.017Z,29.10
2018-08-06T09:32:11.251Z,29.30
2018-08-06T09:34:41.455Z,29.30
2018-08-06T09:37:11.722Z,29.40
2018-08-06T09:39:41.886Z,29.40
2018-08-06T09:42:12.112Z,29.50
2018-08-06T09:44:42.432Z,29.50
2018-08-06T09:47:12.641Z,29.50
2018-08-06T09:49:43.017Z,29.50
2018-08-06T09:54:42.757Z,29.60
2018-08-06T09:57:13.012Z,29.70
2018-08-06T09:59:43.231Z,29.80
2018-08-06T10:02:13.379Z,29.80
2018-08-06T10:04:43.566Z,29.90
2018-08-06T10:07:13.814Z,29.90
2018-08-06T10:09:43.981Z,30.00
2018-08-06T10:12:14.069Z,30.10
2018-08-06T10:14:44.212Z,30.20
2018-08-06T10:17:14.343Z,30.30
2018-08-06T10:19:44.529Z,30.40
2018-08-06T10:22:14.591Z,30.50
2018-08-06T10:27:14.492Z,30.70
2018-08-06T10:29:44.578Z,30.90
2018-08-06T10:32:14.744Z,31.00
2018-08-06T10:34:45.517Z,31.20
2018-08-06T10:37:15.649Z,31.30
2018-08-06T10:39:45.732Z,31.40
2018-08-06T10:42:15.934Z,31.50
2018-08-06T10:44:45.993Z,31.70
2018-08-06T10:47:16.067Z,31.80
2018-08-06T10:49:46.279Z,31.80
2018-08-06T10:52:16.357Z,31.90
2018-08-06T10:54:46.475Z,31.90
2018-08-06T10:57:16.634Z,31.90
2018-08-06T10:59:46.822Z,31.90
2018-08-06T11:02:16.975Z,31.90
2018-08-06T11:04:47.061Z,31.90
2018-08-06T11:07:17.233Z,32.00
2018-08-06T11:09:47.453Z,32.10
2018-08-06T11:12:17.645Z,32.10
2018-08-06T11:14:47.825Z,32.20
2018-08-06T11:17:18.005Z,32.30
2018-08-06T11:19:48.138Z,32.30
2018-08-06T11:22:18.360Z,32.50
2018-08-06T11:24:48.409Z,32.60
2018-08-06T11:27:18.569Z,32.70
2018-08-06T11:29:48.708Z,32.90
2018-08-06T11:32:18.845Z,33.00
2018-08-06T11:34:49.052Z,33.00
2018-08-06T11:37:19.192Z,33.00
2018-08-06T11:39:49.278Z,33.00
2018-08-06T11:42:19.441Z,33.10
2018-08-06T11:44:49.520Z,33.20
2018-08-06T11:47:19.651Z,33.20
2018-08-06T11:49:49.758Z,33.30
2018-08-06T11:52:19.981Z,33.40
2018-08-06T11:54:50.125Z,33.50
2018-08-06T11:57:20.236Z,33.60
2018-08-06T11:59:50.429Z,33.60
2018-08-06T12:02:20.628Z,33.60
2018-08-06T12:04:50.773Z,33.50
2018-08-06T12:07:20.888Z,33.60
2018-08-06T12:09:50.937Z,33.60
2018-08-06T12:12:21.462Z,33.50
2018-08-06T12:14:51.609Z,33.50
2018-08-06T12:17:21.664Z,33.50
2018-08-06T12:19:51.702Z,33.40
2018-08-06T12:22:21.909Z,33.40
2018-08-06T12:24:52.022Z,33.40
2018-08-06T12:27:23.007Z,33.50
2018-08-06T12:29:53.261Z,33.50
2018-08-06T12:32:26.282Z,33.70
2018-08-06T12:34:56.601Z,33.70
2018-08-06T12:37:26.891Z,33.90
2018-08-06T12:39:57.089Z,34.00
2018-08-06T12:42:27.370Z,34.00
2018-08-06T12:44:57.506Z,34.00
2018-08-06T12:47:27.760Z,33.90
2018-08-06T12:49:57.890Z,33.90
2018-08-06T12:52:28.137Z,33.90
2018-08-06T12:57:28.022Z,34.00
2018-08-06T12:59:58.076Z,33.90
2018-08-06T13:02:28.247Z,33.90
2018-08-06T13:04:58.444Z,34.00
2018-08-06T13:07:28.650Z,34.00
2018-08-06T13:09:58.746Z,34.10
2018-08-06T13:12:28.924Z,34.10
2018-08-06T13:14:59.092Z,34.20
2018-08-06T13:17:29.236Z,34.40
2018-08-06T13:19:59.508Z,34.50
2018-08-06T13:22:29.699Z,34.60
2018-08-06T13:24:59.989Z,34.70
2018-08-06T13:27:30.656Z,34.80
2018-08-06T13:30:00.993Z,34.80
2018-08-06T13:32:31.174Z,34.90
2018-08-06T13:35:01.266Z,35.10
2018-08-06T13:37:31.504Z,35.20
2018-08-06T13:40:01.728Z,35.30
2018-08-06T13:42:32.007Z,35.30
2018-08-06T13:45:02.141Z,35.30
2018-08-06T13:47:32.360Z,35.30
2018-08-06T13:50:02.857Z,35.30
2018-08-06T13:52:33.557Z,35.30
2018-08-06T13:55:04.015Z,35.40
2018-08-06T13:57:34.146Z,35.50
2018-08-06T14:00:14.629Z,35.50
2018-08-06T14:02:45.197Z,35.50
2018-08-06T14:05:16.869Z,35.50
2018-08-06T14:07:48.218Z,35.50
2018-08-06T14:10:18.845Z,35.50
2018-08-06T14:12:49.049Z,35.50
2018-08-06T14:15:19.273Z,35.50
2018-08-06T14:17:49.388Z,35.60
2018-08-06T14:20:19.678Z,35.70
2018-08-06T14:22:49.841Z,35.70
2018-08-06T14:25:20.193Z,35.70
2018-08-06T14:27:50.335Z,35.70
2018-08-06T14:30:20.526Z,35.70
2018-08-06T14:32:50.713Z,35.60
2018-08-06T14:35:20.818Z,35.70
2018-08-06T14:37:50.989Z,35.70
2018-08-06T14:40:21.151Z,35.70
2018-08-06T14:42:51.446Z,35.70
2018-08-06T14:45:21.626Z,35.70
2018-08-06T14:47:51.988Z,35.70
2018-08-06T14:50:22.156Z,35.70
2018-08-06T14:52:52.210Z,35.70
2018-08-06T14:55:22.384Z,35.70
2018-08-06T14:57:52.635Z,35.80
2018-08-06T15:00:23.741Z,35.80
2018-08-06T15:02:54.522Z,35.90
2018-08-06T15:05:24.728Z,36.00
2018-08-06T15:07:54.877Z,36.00
2018-08-06T15:10:25.058Z,36.10
2018-08-06T15:12:55.441Z,36.20
2018-08-06T15:15:25.673Z,36.20
2018-08-06T15:17:55.801Z,36.20
2018-08-06T15:20:25.893Z,36.20
2018-08-06T15:22:56.131Z,36.20
2018-08-06T15:25:26.471Z,36.20
2018-08-06T15:27:57.235Z,36.20
2018-08-06T15:30:27.539Z,36.20
2018-08-06T15:32:57.760Z,36.20
2018-08-06T15:35:27.935Z,36.20
2018-08-06T15:37:58.129Z,36.20
2018-08-06T15:40:28.276Z,36.20
2018-08-06T15:42:58.482Z,36.20
2018-08-06T15:45:28.618Z,36.30
2018-08-06T15:47:58.727Z,36.40
2018-08-06T15:50:28.957Z,36.50
2018-08-06T15:52:59.185Z,36.50
2018-08-06T15:55:29.293Z,36.60
2018-08-06T15:57:59.537Z,36.70
2018-08-06T16:00:29.763Z,36.80
2018-08-06T16:02:59.891Z,36.90
2018-08-06T16:05:30.067Z,37.00
2018-08-06T16:08:00.210Z,37.00
2018-08-06T16:10:30.361Z,37.10
2018-08-06T16:15:30.253Z,37.10
2018-08-06T16:18:00.496Z,37.10
2018-08-06T16:20:30.655Z,37.10
2018-08-06T16:23:00.855Z,37.20
2018-08-06T16:25:31.010Z,37.20
2018-08-06T16:28:02.173Z,37.30
2018-08-06T16:30:32.341Z,37.30
2018-08-06T16:35:32.417Z,37.40
2018-08-06T16:38:02.713Z,37.40
2018-08-06T16:40:32.886Z,37.40
2018-08-06T16:43:03.154Z,37.40
2018-08-06T16:45:33.429Z,37.40
2018-08-06T16:48:03.814Z,37.30
2018-08-06T16:50:34.173Z,37.30
2018-08-06T16:53:04.473Z,37.20
2018-08-06T16:55:34.652Z,37.30
2018-08-06T16:58:04.812Z,37.30
2018-08-06T17:00:34.990Z,37.30
2018-08-06T17:03:05.268Z,37.40
2018-08-06T17:05:35.634Z,37.40
2018-08-06T17:08:06.007Z,37.50
2018-08-06T17:10:36.287Z,37.50
2018-08-06T17:13:06.507Z,37.50
2018-08-06T17:15:36.735Z,37.50
2018-08-06T17:18:07.045Z,37.50
2018-08-06T17:20:37.365Z,37.50
2018-08-06T17:23:07.792Z,37.50
2018-08-06T17:25:37.879Z,37.50
2018-08-06T17:28:08.077Z,37.50
2018-08-06T17:30:38.331Z,37.40
2018-08-06T17:33:09.324Z,37.40
2018-08-06T17:35:39.416Z,37.30
2018-08-06T17:38:09.643Z,37.20
2018-08-06T17:40:39.932Z,37.20
2018-08-06T17:43:10.095Z,37.00
2018-08-06T17:45:40.400Z,37.00
2018-08-06T17:48:10.607Z,36.90
2018-08-06T17:50:40.738Z,36.80
2018-08-06T17:53:10.884Z,36.70
2018-08-06T17:55:41.147Z,36.60
2018-08-06T17:58:11.313Z,36.50
2018-08-06T18:00:41.463Z,36.40
2018-08-06T18:03:11.559Z,36.40
2018-08-06T18:05:41.653Z,36.30
2018-08-06T18:08:12.232Z,36.20
2018-08-06T18:10:42.468Z,36.10
2018-08-06T18:13:12.638Z,36.00
2018-08-06T18:15:42.868Z,35.80
2018-08-06T18:18:12.923Z,35.70
2018-08-06T18:20:43.118Z,35.60
2018-08-06T18:23:13.240Z,35.50
2018-08-06T18:25:43.462Z,35.40
2018-08-06T18:28:13.598Z,35.30
2018-08-06T18:30:43.763Z,35.10
2018-08-06T18:33:14.001Z,35.00
2018-08-06T18:35:44.337Z,34.80
2018-08-06T18:38:14.597Z,34.70
2018-08-06T18:40:44.843Z,34.50
2018-08-06T18:43:15.145Z,34.40
2018-08-06T18:45:45.368Z,34.30
2018-08-06T18:50:45.485Z,34.00
2018-08-06T18:53:16.051Z,33.90
2018-08-06T18:55:46.252Z,33.70
2018-08-06T18:58:16.409Z,33.60
2018-08-06T19:00:46.596Z,33.40
2018-08-06T19:03:16.877Z,33.30
2018-08-06T19:05:47.151Z,33.20
2018-08-06T19:08:17.275Z,33.10
2018-08-06T19:13:22.209Z,32.80
2018-08-06T19:15:53.727Z,32.80
2018-08-06T19:18:28.969Z,32.60
2018-08-06T19:20:59.093Z,32.60
2018-08-06T19:23:29.226Z,32.40
2018-08-06T19:25:59.474Z,32.30
2018-08-06T19:28:29.633Z,32.20
2018-08-06T19:31:04.917Z,32.10
2018-08-06T19:33:35.192Z,32.00
2018-08-06T19:36:05.396Z,31.90
2018-08-06T19:41:05.424Z,31.60
2018-08-06T19:43:39.479Z,31.40
2018-08-06T19:46:10.226Z,31.30
2018-08-06T19:48:40.345Z,31.10
2018-08-06T19:51:10.577Z,31.00
2018-08-06T19:53:40.659Z,30.90
2018-08-06T19:56:15.954Z,30.80
2018-08-06T19:58:46.229Z,30.70
2018-08-06T20:01:16.497Z,30.60
2018-08-06T20:03:46.722Z,30.50
2018-08-06T20:06:16.891Z,30.40
2018-08-06T20:08:47.135Z,30.30
2018-08-06T20:11:17.303Z,30.20
2018-08-06T20:13:47.509Z,30.10
2018-08-06T20:16:17.626Z,30.00
2018-08-06T20:18:47.860Z,29.90
2018-08-06T20:21:19.180Z,29.80
2018-08-06T20:23:49.393Z,29.80
2018-08-06T20:26:19.636Z,29.70
2018-08-06T20:28:56.463Z,29.60
2018-08-06T20:31:26.843Z,29.50
2018-08-06T20:33:57.021Z,29.40
2018-08-06T20:36:27.284Z,29.30
2018-08-06T20:38:57.476Z,29.20
2018-08-06T20:41:27.649Z,29.10
2018-08-06T20:43:57.748Z,29.00
2018-08-06T20:46:28.520Z,28.80
2018-08-06T20:48:58.731Z,28.70
2018-08-06T20:51:28.843Z,28.60
2018-08-06T20:53:59.205Z,28.50
2018-08-06T20:56:29.264Z,28.40
2018-08-06T20:58:59.493Z,28.40
2018-08-06T21:01:29.636Z,28.30
2018-08-06T21:03:59.733Z,28.20
2018-08-06T21:06:29.822Z,28.10
2018-08-06T21:08:59.867Z,28.00
2018-08-06T21:11:29.974Z,28.00
2018-08-06T21:14:00.098Z,27.90
2018-08-06T21:16:30.237Z,27.90
2018-08-06T21:19:00.373Z,27.80
2018-08-06T21:21:30.648Z,27.80
2018-08-06T21:24:07.533Z,27.70
2018-08-06T21:26:37.703Z,27.60
2018-08-06T21:29:07.857Z,27.60
2018-08-06T21:31:38.036Z,27.50
2018-08-06T21:34:08.290Z,27.40
2018-08-06T21:36:38.371Z,27.40
2018-08-06T21:39:11.452Z,27.30
2018-08-06T21:41:41.530Z,27.20
2018-08-06T21:44:11.616Z,27.20
2018-08-06T21:46:41.753Z,27.00
2018-08-06T21:49:11.800Z,27.00
2018-08-06T21:51:41.887Z,26.90
2018-08-06T21:54:12.055Z,26.80
2018-08-06T21:56:42.138Z,26.80
2018-08-06T21:59:12.179Z,26.70
2018-08-06T22:01:42.429Z,26.70
2018-08-06T22:04:12.758Z,26.60
2018-08-06T22:06:42.902Z,26.60
2018-08-06T22:09:14.242Z,26.50
2018-08-06T22:11:44.408Z,26.40
2018-08-06T22:14:14.689Z,26.30
2018-08-06T22:16:44.780Z,26.30
2018-08-06T22:19:14.902Z,26.30
2018-08-06T22:21:45.056Z,26.20
2018-08-06T22:24:15.234Z,26.20
2018-08-06T22:26:45.361Z,26.10
2018-08-06T22:29:15.652Z,26.10
2018-08-06T22:31:45.907Z,26.00
2018-08-06T22:34:16.112Z,25.90
2018-08-06T22:36:46.256Z,25.90
2018-08-06T22:39:16.465Z,25.80
2018-08-06T22:41:46.731Z,25.80
2018-08-06T22:44:16.797Z,25.70
2018-08-06T22:46:46.970Z,25.60
2018-08-06T22:49:17.097Z,25.60
2018-08-06T22:51:47.202Z,25.60
2018-08-06T22:54:17.247Z,25.50
2018-08-06T22:56:47.264Z,25.40
2018-08-06T22:59:17.459Z,25.40
2018-08-06T23:01:47.585Z,25.30
2018-08-06T23:04:17.757Z,25.30
2018-08-06T23:06:47.848Z,25.30
2018-08-06T23:09:17.977Z,25.20
2018-08-06T23:11:48.128Z,25.20
2018-08-06T23:14:18.224Z,25.10
2018-08-06T23:16:48.310Z,25.00
2018-08-06T23:19:18.441Z,25.00
2018-08-06T23:21:48.585Z,25.00
2018-08-06T23:24:18.748Z,24.90
2018-08-06T23:26:49.049Z,24.90
2018-08-06T23:29:19.353Z,24.80
2018-08-06T23:31:49.497Z,24.70
2018-08-06T23:34:19.705Z,24.70
2018-08-06T23:36:49.733Z,24.60
2018-08-06T23:39:20.026Z,24.60
2018-08-06T23:41:50.192Z,24.50
2018-08-06T23:44:20.388Z,24.50
2018-08-06T23:46:50.597Z,24.40
2018-08-06T23:49:20.881Z,24.40
2018-08-06T23:51:51.092Z,24.30
2018-08-06T23:54:21.259Z,24.20
2018-08-06T23:56:51.445Z,24.10
2018-08-06T23:59:21.621Z,24.00
